createdAt,value
2023-05-16T00:00:17.186Z,5.73
2023-05-16T00:02:46.392Z,5.40
2023-05-16T00:05:14.531Z,5.10
2023-05-16T00:07:44.755Z,5.07
2023-05-16T00:10:13.063Z,5.50
2023-05-16T00:12:41.639Z,5.17
2023-05-16T00:15:13.918Z,4.63
2023-05-16T00:17:43.664Z,4.87
2023-05-16T00:20:14.107Z,5.37
2023-05-16T00:22:42.544Z,5.00
2023-05-16T00:25:11.054Z,4.63
2023-05-16T00:27:38.793Z,4.50
2023-05-16T00:30:07.724Z,4.60
2023-05-16T00:32:36.135Z,4.33
2023-05-16T00:35:04.435Z,4.50
2023-05-16T00:37:33.758Z,5.50
2023-05-16T00:40:01.529Z,4.57
2023-05-16T00:42:29.362Z,5.60
2023-05-16T00:44:57.150Z,4.93
2023-05-16T00:47:24.915Z,5.30
2023-05-16T00:49:52.903Z,5.53
2023-05-16T00:52:20.793Z,5.43
2023-05-16T00:54:50.368Z,5.33
2023-05-16T00:57:18.561Z,5.30
2023-05-16T00:59:47.357Z,4.90
2023-05-16T01:02:15.828Z,4.97
2023-05-16T01:04:44.466Z,5.00
2023-05-16T01:07:12.416Z,4.70
2023-05-16T01:09:40.380Z,5.00
2023-05-16T01:12:16.816Z,4.53
2023-05-16T01:14:52.758Z,5.13
2023-05-16T01:17:24.718Z,4.60
2023-05-16T01:20:04.730Z,5.60
2023-05-16T01:22:47.625Z,5.07
2023-05-16T01:25:28.010Z,5.00
2023-05-16T01:27:59.882Z,5.80
2023-05-16T01:30:27.656Z,5.07
2023-05-16T01:32:55.441Z,5.20
2023-05-16T01:35:23.360Z,5.23
2023-05-16T01:37:57.453Z,5.70
2023-05-16T01:40:46.608Z,5.83
2023-05-16T01:43:24.389Z,5.30
2023-05-16T01:46:08.106Z,5.60
2023-05-16T01:48:44.251Z,5.67
2023-05-16T01:51:13.759Z,5.10
2023-05-16T01:53:42.336Z,5.30
2023-05-16T01:56:16.580Z,4.97
2023-05-16T01:58:47.064Z,4.80
2023-05-16T02:01:15.002Z,5.30
2023-05-16T02:03:42.813Z,5.40
2023-05-16T02:06:10.623Z,5.40
2023-05-16T02:08:38.459Z,5.57
2023-05-16T02:11:06.245Z,4.97
2023-05-16T02:13:33.986Z,5.20
2023-05-16T02:16:04.025Z,5.03
2023-05-16T02:18:31.972Z,5.37
2023-05-16T02:20:59.938Z,5.30
2023-05-16T02:23:27.733Z,5.37
2023-05-16T02:25:55.555Z,5.50
2023-05-16T02:28:23.325Z,5.50
2023-05-16T02:30:58.107Z,6.63
2023-05-16T02:33:27.818Z,5.80
2023-05-16T02:35:55.836Z,5.93
2023-05-16T02:38:23.624Z,6.03
2023-05-16T02:40:51.589Z,5.70
2023-05-16T02:43:19.397Z,5.57
2023-05-16T02:45:47.227Z,5.97
2023-05-16T02:48:15.044Z,5.73
2023-05-16T02:50:44.240Z,5.33
2023-05-16T02:53:12.181Z,5.33
2023-05-16T02:55:40.114Z,5.67
2023-05-16T02:58:08.154Z,5.37
2023-05-16T03:00:35.967Z,4.80
2023-05-16T03:03:04.801Z,5.60
2023-05-16T03:05:32.798Z,5.20
2023-05-16T03:08:02.176Z,6.03
2023-05-16T03:10:29.934Z,5.63
2023-05-16T03:12:57.728Z,5.87
2023-05-16T03:15:25.969Z,5.80
2023-05-16T03:17:53.844Z,5.93
2023-05-16T03:20:22.602Z,5.90
2023-05-16T03:22:50.373Z,5.13
2023-05-16T03:25:19.525Z,5.70
2023-05-16T03:27:47.301Z,5.23
2023-05-16T03:30:15.581Z,5.30
2023-05-16T03:32:43.389Z,5.07
2023-05-16T03:35:11.903Z,5.93
2023-05-16T03:37:40.196Z,5.70
2023-05-16T03:40:09.746Z,5.67
2023-05-16T03:42:38.860Z,6.27
2023-05-16T03:45:08.127Z,6.63
2023-05-16T03:47:36.015Z,6.27
2023-05-16T03:50:04.249Z,6.60
2023-05-16T03:52:32.092Z,5.63
2023-05-16T03:54:59.898Z,6.50
2023-05-16T03:57:27.645Z,6.67
2023-05-16T03:59:56.730Z,5.67
2023-05-16T04:02:24.626Z,6.80
2023-05-16T04:04:52.587Z,6.30
2023-05-16T04:07:22.592Z,6.40
2023-05-16T04:09:52.453Z,6.70
2023-05-16T04:12:20.211Z,5.43
2023-05-16T04:14:47.974Z,6.23
2023-05-16T04:17:17.092Z,6.40
2023-05-16T04:19:45.218Z,6.00
2023-05-16T04:22:13.052Z,5.40
2023-05-16T04:24:40.941Z,5.43
2023-05-16T04:27:09.409Z,6.00
2023-05-16T04:29:37.345Z,5.43
2023-05-16T04:32:07.502Z,5.93
2023-05-16T04:34:39.683Z,5.97
2023-05-16T04:37:09.390Z,5.60
2023-05-16T04:39:37.806Z,5.93
2023-05-16T04:42:06.696Z,6.10
2023-05-16T04:44:34.609Z,6.17
2023-05-16T04:47:02.627Z,6.07
2023-05-16T04:49:30.419Z,6.07
2023-05-16T04:51:59.572Z,6.50
2023-05-16T04:54:27.354Z,5.53
2023-05-16T04:56:55.119Z,6.63
2023-05-16T04:59:22.950Z,5.90
2023-05-16T05:01:50.792Z,6.40
2023-05-16T05:04:18.682Z,6.60
2023-05-16T05:06:46.428Z,5.43
2023-05-16T05:09:15.496Z,5.47
2023-05-16T05:11:43.243Z,5.30
2023-05-16T05:14:11.052Z,6.43
2023-05-16T05:16:38.979Z,5.67
2023-05-16T05:19:06.793Z,6.20
2023-05-16T05:21:34.537Z,5.97
2023-05-16T05:24:02.263Z,5.30
2023-05-16T05:26:31.398Z,5.50
2023-05-16T05:29:05.468Z,5.13
2023-05-16T05:31:34.970Z,5.47
2023-05-16T05:34:04.053Z,4.90
2023-05-16T05:36:31.897Z,5.27
2023-05-16T05:38:59.654Z,4.73
2023-05-16T05:41:27.655Z,5.53
2023-05-16T05:43:56.753Z,4.93
2023-05-16T05:46:25.864Z,5.57
2023-05-16T05:48:53.772Z,5.03
2023-05-16T05:51:21.827Z,4.93
2023-05-16T05:53:49.931Z,5.83
2023-05-16T05:56:17.677Z,5.63
2023-05-16T05:58:45.780Z,4.67
2023-05-16T06:01:15.002Z,4.83
2023-05-16T06:03:42.751Z,5.63
2023-05-16T06:06:10.912Z,5.13
2023-05-16T06:08:38.665Z,5.43
2023-05-16T06:11:06.550Z,5.67
2023-05-16T06:13:34.328Z,5.87
2023-05-16T06:16:02.164Z,5.63
2023-05-16T06:18:31.335Z,5.63
2023-05-16T06:20:59.109Z,5.13
2023-05-16T06:23:27.135Z,5.50
2023-05-16T06:25:54.910Z,4.70
2023-05-16T06:28:23.810Z,4.97
2023-05-16T06:30:52.017Z,5.67
2023-05-16T06:33:20.041Z,5.77
2023-05-16T06:35:49.560Z,4.83
2023-05-16T06:38:17.483Z,5.17
2023-05-16T06:40:45.336Z,5.03
2023-05-16T06:43:13.142Z,4.43
2023-05-16T06:45:41.121Z,4.40
2023-05-16T06:48:09.290Z,4.50
2023-05-16T06:50:37.220Z,5.97
2023-05-16T06:53:07.294Z,5.23
2023-05-16T06:55:35.682Z,4.73
2023-05-16T06:58:03.463Z,4.93
2023-05-16T07:00:31.246Z,6.87
2023-05-16T07:02:59.114Z,7.27
2023-05-16T07:05:27.117Z,6.40
2023-05-16T07:07:55.034Z,6.13
2023-05-16T07:10:24.475Z,6.23
2023-05-16T07:12:53.959Z,6.47
2023-05-16T07:15:21.757Z,5.90
2023-05-16T07:17:50.815Z,5.57
2023-05-16T07:20:18.766Z,6.30
2023-05-16T07:22:46.566Z,6.13
2023-05-16T07:25:18.569Z,5.07
2023-05-16T07:27:47.688Z,5.43
2023-05-16T07:30:15.958Z,5.53
2023-05-16T07:32:44.168Z,6.83
2023-05-16T07:35:13.152Z,7.00
2023-05-16T07:37:42.522Z,6.63
2023-05-16T07:40:11.323Z,6.50
2023-05-16T07:42:39.218Z,7.03
2023-05-16T07:45:09.290Z,6.23
2023-05-16T07:47:37.254Z,6.67
2023-05-16T07:50:05.607Z,6.67
2023-05-16T07:52:33.404Z,6.73
2023-05-16T07:55:01.237Z,6.20
2023-05-16T07:57:29.588Z,6.20
2023-05-16T07:59:57.481Z,6.33
2023-05-16T08:02:30.736Z,5.10
2023-05-16T08:04:58.992Z,5.07
2023-05-16T08:07:26.935Z,5.47
2023-05-16T08:09:54.717Z,5.23
2023-05-16T08:12:22.581Z,5.10
2023-05-16T08:14:50.437Z,4.73
2023-05-16T08:17:18.255Z,4.47
2023-05-16T08:19:47.414Z,4.63
2023-05-16T08:22:15.272Z,5.20
2023-05-16T08:24:43.042Z,4.77
2023-05-16T08:27:11.988Z,4.47
2023-05-16T08:29:39.804Z,4.20
2023-05-16T08:32:09.530Z,4.70
2023-05-16T08:34:37.635Z,4.10
2023-05-16T08:37:06.840Z,5.20
2023-05-16T08:39:34.767Z,4.90
2023-05-16T08:42:02.609Z,4.60
2023-05-16T08:44:30.445Z,4.30
2023-05-16T08:47:00.454Z,3.40
2023-05-16T08:49:29.915Z,4.10
2023-05-16T08:51:59.224Z,3.80
2023-05-16T08:54:28.678Z,3.60
2023-05-16T08:56:58.802Z,4.03
2023-05-16T08:59:26.806Z,4.30
2023-05-16T09:01:54.687Z,5.47
2023-05-16T09:04:25.350Z,5.23
2023-05-16T09:06:53.469Z,4.33
2023-05-16T09:09:21.281Z,4.73
2023-05-16T09:11:50.485Z,5.80
2023-05-16T09:14:18.330Z,6.77
2023-05-16T09:16:46.655Z,5.63
2023-05-16T09:19:15.034Z,6.53
2023-05-16T09:21:43.371Z,6.17
2023-05-16T09:24:11.314Z,6.10
2023-05-16T09:26:40.587Z,6.10
2023-05-16T09:29:13.962Z,5.07
2023-05-16T09:31:42.008Z,6.63
2023-05-16T09:34:11.246Z,6.67
2023-05-16T09:36:40.167Z,6.53
2023-05-16T09:39:09.315Z,7.33
2023-05-16T09:41:37.376Z,6.83
2023-05-16T09:44:05.919Z,5.80
2023-05-16T09:46:38.267Z,6.30
2023-05-16T09:49:06.219Z,7.73
2023-05-16T09:51:34.471Z,7.03
2023-05-16T09:54:02.325Z,7.60
2023-05-16T09:56:30.648Z,6.63
2023-05-16T09:58:58.485Z,6.67
2023-05-16T10:01:26.780Z,7.40
2023-05-16T10:03:56.440Z,7.20
2023-05-16T10:06:25.047Z,6.33
2023-05-16T10:08:52.942Z,7.10
2023-05-16T10:11:21.585Z,6.57
2023-05-16T10:13:53.415Z,6.23
2023-05-16T10:16:23.529Z,6.83
2023-05-16T10:18:52.053Z,6.40
2023-05-16T10:21:23.400Z,6.13
2023-05-16T10:23:53.505Z,6.80
2023-05-16T10:26:23.504Z,6.13
2023-05-16T10:28:51.993Z,6.27
2023-05-16T10:31:20.026Z,5.87
2023-05-16T10:33:48.379Z,5.97
2023-05-16T10:36:17.098Z,5.27
2023-05-16T10:38:47.317Z,5.70
2023-05-16T10:41:15.838Z,4.80
2023-05-16T10:43:46.233Z,4.47
2023-05-16T10:46:15.345Z,4.90
2023-05-16T10:48:43.607Z,3.90
2023-05-16T10:51:34.943Z,4.37
2023-05-16T10:54:09.332Z,3.73
2023-05-16T10:56:37.750Z,4.33
2023-05-16T10:59:05.758Z,4.70
2023-05-16T11:01:35.434Z,4.33
2023-05-16T11:04:07.009Z,3.80
2023-05-16T11:06:36.127Z,3.20
2023-05-16T11:09:18.638Z,3.80
2023-05-16T11:11:49.484Z,3.97
2023-05-16T11:14:22.031Z,4.17
2023-05-16T11:16:52.471Z,3.43
2023-05-16T11:19:32.028Z,3.30
2023-05-16T11:22:11.532Z,2.87
2023-05-16T11:24:49.606Z,3.00
2023-05-16T11:27:23.282Z,2.77
2023-05-16T11:29:51.465Z,3.23
2023-05-16T11:32:22.726Z,3.10
2023-05-16T11:34:51.200Z,2.83
2023-05-16T11:37:20.955Z,3.40
2023-05-16T11:39:50.321Z,3.13
2023-05-16T11:42:18.851Z,3.10
2023-05-16T11:44:46.858Z,2.80
2023-05-16T11:47:14.752Z,2.47
2023-05-16T11:49:43.200Z,3.10
2023-05-16T11:52:11.193Z,2.87
2023-05-16T11:54:39.439Z,3.23
2023-05-16T11:57:10.280Z,2.80
2023-05-16T11:59:38.439Z,2.30
2023-05-16T12:02:06.909Z,2.37
2023-05-16T12:04:34.871Z,2.80
2023-05-16T12:07:03.974Z,2.90
2023-05-16T12:09:31.779Z,3.13
2023-05-16T12:11:59.683Z,2.57
2023-05-16T12:14:28.967Z,2.80
2023-05-16T12:16:57.039Z,2.60
2023-05-16T12:19:25.345Z,2.67
2023-05-16T12:21:56.234Z,2.50
2023-05-16T12:24:31.005Z,2.90
2023-05-16T12:26:59.300Z,3.67
2023-05-16T12:29:28.450Z,2.80
2023-05-16T12:31:56.338Z,2.70
2023-05-16T12:34:24.563Z,3.30
2023-05-16T12:36:54.176Z,2.80
2023-05-16T12:39:22.807Z,2.63
2023-05-16T12:41:50.603Z,2.60
2023-05-16T12:44:19.975Z,3.00
2023-05-16T12:46:52.587Z,2.73
2023-05-16T12:49:22.461Z,2.80
2023-05-16T12:51:52.126Z,2.43
2023-05-16T12:54:20.458Z,3.00
2023-05-16T12:56:48.316Z,3.33
2023-05-16T12:59:16.608Z,3.17
2023-05-16T13:01:46.229Z,2.93
2023-05-16T13:04:19.059Z,2.60
2023-05-16T13:06:57.604Z,2.50
2023-05-16T13:09:30.379Z,3.63
2023-05-16T13:12:00.580Z,3.13
2023-05-16T13:14:28.474Z,3.53
2023-05-16T13:16:56.263Z,2.70
2023-05-16T13:19:25.845Z,2.40
2023-05-16T13:21:53.832Z,3.17
2023-05-16T13:24:21.618Z,2.73
2023-05-16T13:26:49.417Z,2.90
2023-05-16T13:29:17.236Z,2.60
2023-05-16T13:31:45.179Z,2.87
2023-05-16T13:34:13.000Z,2.53
2023-05-16T13:39:18.323Z,2.10
2023-05-16T13:41:48.044Z,2.23
2023-05-16T13:44:16.888Z,2.50
2023-05-16T13:46:45.049Z,2.10
2023-05-16T13:49:12.854Z,1.80
2023-05-16T13:51:42.267Z,2.20
2023-05-16T13:54:10.117Z,1.77
2023-05-16T13:56:37.923Z,1.67
2023-05-16T13:59:07.205Z,2.20
2023-05-16T14:01:36.311Z,1.80
2023-05-16T14:04:05.015Z,1.70
2023-05-16T14:06:33.501Z,1.70
2023-05-16T14:09:03.242Z,1.87
2023-05-16T14:11:31.173Z,1.60
2023-05-16T14:13:59.054Z,1.60
2023-05-16T14:16:27.348Z,2.00
2023-05-16T14:18:55.334Z,1.70
2023-05-16T14:21:23.218Z,1.50
2023-05-16T14:23:51.118Z,1.47
2023-05-16T14:26:22.521Z,1.70
2023-05-16T14:28:50.717Z,1.70
2023-05-16T14:31:18.646Z,2.10
2023-05-16T14:33:46.607Z,1.80
2023-05-16T14:36:14.947Z,1.70
2023-05-16T14:38:42.885Z,1.70
2023-05-16T14:41:10.784Z,1.97
2023-05-16T14:43:40.067Z,1.50
2023-05-16T14:46:07.932Z,1.60
2023-05-16T14:48:35.835Z,1.70
2023-05-16T14:51:04.034Z,1.77
2023-05-16T14:53:31.862Z,1.80
2023-05-16T14:56:00.079Z,1.90
2023-05-16T14:58:28.206Z,2.00
2023-05-16T15:00:57.366Z,1.87
2023-05-16T15:03:25.346Z,1.87
2023-05-16T15:05:54.553Z,1.50
2023-05-16T15:08:22.349Z,1.67
2023-05-16T15:10:50.157Z,1.60
2023-05-16T15:13:18.001Z,1.60
2023-05-16T15:15:45.849Z,1.70
2023-05-16T15:18:15.234Z,1.80
2023-05-16T15:20:43.071Z,1.30
2023-05-16T15:23:11.938Z,1.50
2023-05-16T15:25:40.259Z,1.50
2023-05-16T15:28:08.082Z,1.40
2023-05-16T15:30:35.958Z,1.43
2023-05-16T15:33:03.836Z,1.70
2023-05-16T15:35:33.010Z,1.70
2023-05-16T15:38:00.997Z,1.33
2023-05-16T15:40:29.251Z,1.77
2023-05-16T15:42:57.056Z,1.60
2023-05-16T15:45:24.903Z,1.40
2023-05-16T15:47:52.809Z,1.47
2023-05-16T15:50:20.851Z,1.67
2023-05-16T15:52:50.009Z,1.80
2023-05-16T15:55:17.834Z,1.50
2023-05-16T15:57:45.610Z,1.30
2023-05-16T16:00:14.524Z,1.53
2023-05-16T16:02:44.732Z,1.60
2023-05-16T16:05:12.699Z,1.33
2023-05-16T16:07:40.509Z,1.50
2023-05-16T16:10:11.253Z,1.73
2023-05-16T16:12:39.070Z,1.47
2023-05-16T16:15:08.258Z,1.50
2023-05-16T16:17:36.140Z,1.60
2023-05-16T16:20:04.372Z,1.40
2023-05-16T16:22:32.245Z,1.37
2023-05-16T16:25:00.426Z,1.90
2023-05-16T16:27:29.626Z,1.50
2023-05-16T16:29:57.430Z,1.70
2023-05-16T16:32:25.385Z,1.70
2023-05-16T16:34:53.233Z,1.53
2023-05-16T16:37:21.020Z,1.63
2023-05-16T16:39:48.877Z,1.67
2023-05-16T16:42:16.637Z,1.83
2023-05-16T16:44:45.798Z,1.47
2023-05-16T16:47:13.687Z,1.57
2023-05-16T16:49:41.856Z,1.40
2023-05-16T16:52:10.082Z,1.63
2023-05-16T16:54:37.886Z,1.50
2023-05-16T16:57:05.984Z,1.70
2023-05-16T16:59:34.111Z,1.60
2023-05-16T17:02:03.247Z,1.33
2023-05-16T17:04:31.490Z,1.43
2023-05-16T17:06:59.310Z,1.60
2023-05-16T17:09:27.133Z,1.47
2023-05-16T17:11:55.145Z,1.30
2023-05-16T17:14:23.736Z,1.40
2023-05-16T17:16:51.670Z,1.47
2023-05-16T17:19:20.926Z,1.50
2023-05-16T17:21:50.413Z,1.50
2023-05-16T17:24:18.251Z,1.50
2023-05-16T17:26:46.044Z,1.47
2023-05-16T17:29:13.833Z,1.33
2023-05-16T17:31:41.598Z,1.50
2023-05-16T17:34:09.421Z,1.30
2023-05-16T17:36:38.632Z,1.40
2023-05-16T17:39:08.219Z,1.37
2023-05-16T17:41:36.153Z,1.50
2023-05-16T17:44:06.656Z,1.20
2023-05-16T17:46:34.651Z,1.27
2023-05-16T17:49:02.542Z,1.20
2023-05-16T17:51:30.699Z,1.30
2023-05-16T17:53:59.854Z,1.40
2023-05-16T17:56:27.656Z,1.20
2023-05-16T17:58:55.469Z,1.50
2023-05-16T18:01:23.260Z,1.53
2023-05-16T18:03:51.179Z,1.20
2023-05-16T18:06:19.591Z,1.40
2023-05-16T18:08:47.567Z,1.37
2023-05-16T18:11:16.811Z,1.60
2023-05-16T18:13:45.671Z,1.50
2023-05-16T18:16:13.497Z,1.20
2023-05-16T18:18:41.488Z,1.40
2023-05-16T18:21:09.671Z,1.50
2023-05-16T18:23:38.121Z,1.67
2023-05-16T18:26:06.123Z,1.50
2023-05-16T18:28:35.304Z,1.50
2023-05-16T18:31:04.156Z,1.67
2023-05-16T18:33:32.047Z,1.43
2023-05-16T18:35:59.907Z,1.30
2023-05-16T18:38:32.675Z,1.27
2023-05-16T18:41:01.786Z,1.07
2023-05-16T18:43:30.203Z,1.60
2023-05-16T18:45:59.513Z,1.50
2023-05-16T18:48:27.394Z,1.37
2023-05-16T18:50:55.823Z,1.33
2023-05-16T18:53:23.871Z,1.60
2023-05-16T18:55:51.755Z,1.30
2023-05-16T18:58:19.917Z,1.33
2023-05-16T19:00:47.924Z,1.70
2023-05-16T19:03:17.194Z,2.77
2023-05-16T19:05:45.333Z,2.33
2023-05-16T19:08:13.211Z,2.13
2023-05-16T19:10:41.623Z,1.97
2023-05-16T19:13:09.554Z,2.00
2023-05-16T19:15:38.173Z,1.53
2023-05-16T19:18:06.782Z,1.63
2023-05-16T19:20:37.390Z,2.00
2023-05-16T19:23:05.407Z,1.93
2023-05-16T19:25:33.326Z,1.77
2023-05-16T19:28:01.126Z,1.60
2023-05-16T19:30:29.242Z,1.17
2023-05-16T19:32:57.173Z,1.27
2023-05-16T19:35:25.263Z,1.30
2023-05-16T19:37:54.545Z,1.40
2023-05-16T19:40:22.453Z,1.73
2023-05-16T19:42:50.490Z,1.43
2023-05-16T19:45:18.302Z,1.53
2023-05-16T19:47:46.227Z,1.60
2023-05-16T19:50:14.192Z,1.77
2023-05-16T19:52:42.016Z,1.40
2023-05-16T19:55:11.321Z,1.70
2023-05-16T19:57:39.171Z,1.23
2023-05-16T20:00:09.441Z,1.30
2023-05-16T20:02:37.401Z,1.20
2023-05-16T20:05:06.474Z,1.30
2023-05-16T20:07:34.289Z,1.17
2023-05-16T20:10:02.093Z,1.33
2023-05-16T20:12:31.238Z,1.67
2023-05-16T20:14:59.177Z,1.70
2023-05-16T20:17:27.371Z,1.80
2023-05-16T20:19:55.408Z,1.40
2023-05-16T20:22:23.272Z,1.23
2023-05-16T20:24:51.047Z,1.33
2023-05-16T20:27:19.145Z,1.60
2023-05-16T20:29:49.273Z,1.50
2023-05-16T20:32:17.122Z,1.50
2023-05-16T20:34:44.904Z,1.30
2023-05-16T20:37:12.682Z,1.60
2023-05-16T20:39:40.638Z,1.50
2023-05-16T20:42:10.728Z,1.40
2023-05-16T20:44:38.690Z,1.40
2023-05-16T20:47:08.770Z,1.53
2023-05-16T20:49:37.639Z,1.33
2023-05-16T20:52:05.991Z,1.33
2023-05-16T20:54:36.688Z,1.57
2023-05-16T20:57:04.856Z,2.13
2023-05-16T20:59:32.734Z,1.30
2023-05-16T21:02:00.609Z,1.10
2023-05-16T21:04:29.803Z,1.10
2023-05-16T21:06:57.744Z,1.00
2023-05-16T21:09:25.555Z,1.27
2023-05-16T21:11:53.418Z,0.90
2023-05-16T21:14:21.205Z,0.90
2023-05-16T21:16:49.011Z,1.10
2023-05-16T21:19:16.946Z,1.00
2023-05-16T21:21:46.250Z,0.90
2023-05-16T21:24:14.102Z,0.80
2023-05-16T21:26:41.904Z,1.07
2023-05-16T21:29:09.765Z,0.93
2023-05-16T21:31:37.562Z,0.97
2023-05-16T21:34:05.661Z,1.10
2023-05-16T21:36:33.506Z,1.20
2023-05-16T21:39:02.644Z,1.40
2023-05-16T21:41:30.497Z,1.27
2023-05-16T21:43:58.343Z,0.90
2023-05-16T21:46:26.227Z,1.20
2023-05-16T21:48:54.058Z,0.80
2023-05-16T21:51:21.925Z,0.70
2023-05-16T21:53:49.759Z,0.80
2023-05-16T21:56:18.968Z,0.90
2023-05-16T21:58:46.850Z,0.57
2023-05-16T22:01:14.881Z,0.70
2023-05-16T22:03:42.861Z,0.70
2023-05-16T22:06:10.786Z,0.90
2023-05-16T22:08:38.563Z,1.00
2023-05-16T22:11:06.614Z,0.67
2023-05-16T22:13:35.834Z,0.60
2023-05-16T22:16:05.449Z,0.67
2023-05-16T22:18:34.008Z,0.80
2023-05-16T22:21:02.101Z,0.70
2023-05-16T22:23:30.027Z,0.90
2023-05-16T22:25:57.826Z,0.53
2023-05-16T22:28:26.110Z,0.90
2023-05-16T22:30:55.290Z,0.60
2023-05-16T22:33:25.705Z,0.60
2023-05-16T22:35:53.833Z,0.70
2023-05-16T22:38:21.637Z,0.70
2023-05-16T22:40:49.495Z,0.70
2023-05-16T22:43:17.387Z,0.67
2023-05-16T22:45:45.437Z,0.80
2023-05-16T22:48:14.740Z,0.70
2023-05-16T22:50:42.634Z,0.80
2023-05-16T22:53:10.470Z,0.60
2023-05-16T22:55:38.799Z,0.70
2023-05-16T22:58:06.896Z,0.80
2023-05-16T23:00:34.739Z,0.80
2023-05-16T23:03:02.617Z,0.60
2023-05-16T23:05:32.311Z,0.57
2023-05-16T23:08:00.227Z,0.60
2023-05-16T23:10:28.041Z,0.93
2023-05-16T23:12:56.072Z,0.70
2023-05-16T23:15:24.060Z,0.67
2023-05-16T23:17:51.914Z,0.83
2023-05-16T23:20:19.976Z,0.50
2023-05-16T23:22:49.188Z,0.50
2023-05-16T23:25:17.024Z,0.77
2023-05-16T23:27:44.830Z,0.60
2023-05-16T23:30:13.286Z,0.80
2023-05-16T23:32:41.140Z,0.70
2023-05-16T23:35:09.461Z,0.73
2023-05-16T23:37:37.264Z,0.50
2023-05-16T23:40:07.894Z,0.80
2023-05-16T23:42:36.628Z,0.70
2023-05-16T23:45:04.912Z,0.60
2023-05-16T23:47:32.769Z,0.80
2023-05-16T23:50:00.665Z,0.70
2023-05-16T23:52:28.562Z,1.10
2023-05-16T23:54:56.363Z,0.60
2023-05-16T23:57:34.601Z,0.60
